createdAt,value
2018-03-17T00:01:34.440Z,5.11
2018-03-17T00:02:33.657Z,4.94
2018-03-17T00:04:27.520Z,4.83
2018-03-17T00:05:26.829Z,4.79
2018-03-17T00:07:20.593Z,4.82
2018-03-17T00:08:20.230Z,4.83
2018-03-17T00:10:14.470Z,4.69
2018-03-17T00:11:13.258Z,4.66
2018-03-17T00:13:06.972Z,4.77
2018-03-17T00:14:07.011Z,4.74
2018-03-17T00:16:00.125Z,4.66
2018-03-17T00:16:59.999Z,4.41
2018-03-17T00:18:53.696Z,4.51
2018-03-17T00:19:53.335Z,4.45
2018-03-17T00:21:47.100Z,4.59
2018-03-17T00:22:46.673Z,4.54
2018-03-17T00:24:40.170Z,4.56
2018-03-17T00:25:40.045Z,4.53
2018-03-17T00:27:50.929Z,4.60
2018-03-17T00:28:49.705Z,4.59
2018-03-17T00:30:43.715Z,4.71
2018-03-17T00:31:43.930Z,4.66
2018-03-17T00:33:36.806Z,4.49
2018-03-17T00:34:36.377Z,4.51
2018-03-17T00:36:30.180Z,4.49
2018-03-17T00:37:29.742Z,4.54
2018-03-17T00:39:23.486Z,4.54
2018-03-17T00:40:23.062Z,4.53
2018-03-17T00:42:17.040Z,4.49
2018-03-17T00:43:16.453Z,4.53
2018-03-17T00:45:09.863Z,4.56
2018-03-17T00:46:09.756Z,4.56
2018-03-17T00:48:18.161Z,4.56
2018-03-17T00:49:17.836Z,4.57
2018-03-17T00:51:11.268Z,4.66
2018-03-17T00:52:11.191Z,4.69
2018-03-17T00:54:04.459Z,4.64
2018-03-17T00:55:04.205Z,4.56
2018-03-17T00:56:57.032Z,4.57
2018-03-17T00:57:57.023Z,4.53
2018-03-17T00:59:50.921Z,4.46
2018-03-17T01:00:50.645Z,4.41
2018-03-17T01:02:44.187Z,4.42
2018-03-17T01:03:44.165Z,4.36
2018-03-17T01:05:37.135Z,4.36
2018-03-17T01:06:37.078Z,4.35
2018-03-17T01:08:30.723Z,4.38
2018-03-17T01:09:30.026Z,4.34
2018-03-17T01:11:23.811Z,4.23
2018-03-17T01:12:23.392Z,4.28
2018-03-17T01:14:17.220Z,4.26
2018-03-17T01:16:30.647Z,4.23
2018-03-17T01:17:30.109Z,4.28
2018-03-17T01:19:23.946Z,4.21
2018-03-17T01:20:23.459Z,4.34
2018-03-17T01:22:17.295Z,4.31
2018-03-17T01:23:17.212Z,4.28
2018-03-17T01:25:10.553Z,4.21
2018-03-17T01:26:10.253Z,4.20
2018-03-17T01:28:03.990Z,4.16
2018-03-17T01:29:03.964Z,4.26
2018-03-17T01:30:57.401Z,4.13
2018-03-17T01:31:56.911Z,4.24
2018-03-17T01:33:51.652Z,4.10
2018-03-17T01:34:50.308Z,4.05
2018-03-17T01:36:44.015Z,4.08
2018-03-17T01:37:43.585Z,4.03
2018-03-17T01:39:37.422Z,3.99
2018-03-17T01:40:36.919Z,3.98
2018-03-17T01:42:30.664Z,3.96
2018-03-17T01:43:30.250Z,4.02
2018-03-17T01:45:24.055Z,4.02
2018-03-17T01:46:23.629Z,4.08
2018-03-17T01:48:17.111Z,4.10
2018-03-17T01:49:17.038Z,4.08
2018-03-17T01:51:10.791Z,4.00
2018-03-17T01:52:11.274Z,4.03
2018-03-17T01:54:03.802Z,4.00
2018-03-17T01:55:03.736Z,3.99
2018-03-17T01:56:57.369Z,4.02
2018-03-17T01:57:57.076Z,4.02
2018-03-17T01:59:53.968Z,3.87
2018-03-17T02:00:50.534Z,3.88
2018-03-17T02:02:44.189Z,3.90
2018-03-17T02:03:43.746Z,3.87
2018-03-17T02:05:37.459Z,3.94
2018-03-17T02:06:37.137Z,3.84
2018-03-17T02:08:30.819Z,3.80
2018-03-17T02:09:30.451Z,3.74
2018-03-17T02:11:24.229Z,3.74
2018-03-17T02:12:23.574Z,3.64
2018-03-17T02:14:16.961Z,3.52
2018-03-17T02:15:16.942Z,3.51
2018-03-17T02:17:10.991Z,3.69
2018-03-17T02:18:10.834Z,3.72
2018-03-17T02:20:04.221Z,3.55
2018-03-17T02:21:04.203Z,3.55
2018-03-17T02:22:57.964Z,3.59
2018-03-17T02:23:57.531Z,3.48
2018-03-17T02:25:50.963Z,3.52
2018-03-17T02:26:50.876Z,3.52
2018-03-17T02:28:44.745Z,3.51
2018-03-17T02:29:44.351Z,3.46
2018-03-17T02:31:38.064Z,3.66
2018-03-17T02:32:37.676Z,3.49
2018-03-17T02:34:31.327Z,3.52
2018-03-17T02:35:30.963Z,3.52
2018-03-17T02:37:25.316Z,3.49
2018-03-17T02:38:24.397Z,3.48
2018-03-17T02:40:18.138Z,3.59
2018-03-17T02:41:17.647Z,3.41
2018-03-17T02:43:11.630Z,3.32
2018-03-17T02:44:11.013Z,3.23
2018-03-17T02:46:04.908Z,3.23
2018-03-17T02:47:04.378Z,3.27
2018-03-17T02:48:58.718Z,3.27
2018-03-17T02:49:57.714Z,3.30
2018-03-17T02:51:52.108Z,3.33
2018-03-17T02:52:51.614Z,3.33
2018-03-17T02:54:45.470Z,3.35
2018-03-17T02:55:45.034Z,3.35
2018-03-17T02:57:39.339Z,3.42
2018-03-17T02:58:38.348Z,3.37
2018-03-17T03:00:32.176Z,3.35
2018-03-17T03:01:31.701Z,3.29
2018-03-17T03:03:25.430Z,3.22
2018-03-17T03:04:25.020Z,3.22
2018-03-17T03:06:18.537Z,3.33
2018-03-17T03:07:18.354Z,3.25
2018-03-17T03:09:12.691Z,3.22
2018-03-17T03:10:14.322Z,3.14
2018-03-17T03:12:06.044Z,3.17
2018-03-17T03:13:05.125Z,3.15
2018-03-17T03:14:58.913Z,3.15
2018-03-17T03:15:58.516Z,3.17
2018-03-17T03:17:52.155Z,3.33
2018-03-17T03:18:51.765Z,3.29
2018-03-17T03:20:47.782Z,3.25
2018-03-17T03:21:48.655Z,3.15
2018-03-17T03:23:42.050Z,3.08
2018-03-17T03:24:41.743Z,3.09
2018-03-17T03:26:34.562Z,3.18
2018-03-17T03:27:34.440Z,3.17
2018-03-17T03:29:28.200Z,3.18
2018-03-17T03:30:28.394Z,3.15
2018-03-17T03:32:21.566Z,3.11
2018-03-17T03:33:21.168Z,3.23
2018-03-17T03:35:14.932Z,3.22
2018-03-17T03:36:14.538Z,3.27
2018-03-17T03:38:08.401Z,3.26
2018-03-17T03:39:07.998Z,3.33
2018-03-17T03:41:01.771Z,3.23
2018-03-17T03:42:01.679Z,3.20
2018-03-17T03:43:54.997Z,3.23
2018-03-17T03:44:54.638Z,3.23
2018-03-17T03:46:50.053Z,3.08
2018-03-17T03:47:47.918Z,3.07
2018-03-17T03:49:41.724Z,3.12
2018-03-17T03:50:41.374Z,3.07
2018-03-17T03:52:35.076Z,2.87
2018-03-17T03:53:37.230Z,2.78
2018-03-17T03:55:28.056Z,2.75
2018-03-17T03:56:27.986Z,2.72
2018-03-17T03:58:22.790Z,2.93
2018-03-17T03:59:21.228Z,2.82
2018-03-17T04:01:14.513Z,2.65
2018-03-17T04:02:14.522Z,2.65
2018-03-17T04:04:07.900Z,2.66
2018-03-17T04:05:07.852Z,2.68
2018-03-17T04:07:01.317Z,2.71
2018-03-17T04:08:01.186Z,2.63
2018-03-17T04:09:54.991Z,2.69
2018-03-17T04:10:54.548Z,2.61
2018-03-17T04:12:47.944Z,2.76
2018-03-17T04:13:47.939Z,2.66
2018-03-17T04:15:41.287Z,2.54
2018-03-17T04:16:41.292Z,2.45
2018-03-17T04:18:35.025Z,2.40
2018-03-17T04:19:34.616Z,2.21
2018-03-17T04:21:28.998Z,2.21
2018-03-17T04:23:42.284Z,2.40
2018-03-17T04:24:41.965Z,2.42
2018-03-17T04:26:35.122Z,2.32
2018-03-17T04:27:34.668Z,2.25
2018-03-17T04:29:28.438Z,2.33
2018-03-17T04:30:28.630Z,2.43
2018-03-17T04:32:21.730Z,2.43
2018-03-17T04:33:21.412Z,2.35
2018-03-17T04:35:14.826Z,2.39
2018-03-17T04:36:14.752Z,2.39
2018-03-17T04:38:08.524Z,2.43
2018-03-17T04:39:08.143Z,2.43
2018-03-17T04:41:02.985Z,2.55
2018-03-17T04:42:02.019Z,2.39
2018-03-17T04:43:56.171Z,2.48
2018-03-17T04:44:54.857Z,2.22
2018-03-17T04:46:48.537Z,2.40
2018-03-17T04:47:48.655Z,2.37
2018-03-17T04:49:41.552Z,2.43
2018-03-17T04:50:41.467Z,2.37
2018-03-17T04:52:35.278Z,2.12
2018-03-17T04:53:34.844Z,2.19
2018-03-17T04:55:28.615Z,2.01
2018-03-17T04:56:28.813Z,2.11
2018-03-17T04:58:21.934Z,2.18
2018-03-17T04:59:21.541Z,2.18
2018-03-17T05:01:16.601Z,2.18
2018-03-17T05:02:14.841Z,2.19
2018-03-17T05:04:08.858Z,2.29
2018-03-17T05:05:08.233Z,2.15
2018-03-17T05:07:01.602Z,2.03
2018-03-17T05:08:01.660Z,2.04
2018-03-17T05:09:55.442Z,1.99
2018-03-17T05:10:55.063Z,2.01
2018-03-17T05:12:48.783Z,2.04
2018-03-17T05:13:49.219Z,2.04
2018-03-17T05:15:44.066Z,2.14
2018-03-17T05:16:41.745Z,2.10
2018-03-17T05:18:36.496Z,2.22
2018-03-17T05:19:35.449Z,2.22
2018-03-17T05:21:28.818Z,2.39
2018-03-17T05:22:28.590Z,2.36
2018-03-17T05:24:22.522Z,2.40
2018-03-17T05:25:21.705Z,2.42
2018-03-17T05:27:15.388Z,2.54
2018-03-17T05:28:15.004Z,2.43
2018-03-17T05:30:08.791Z,2.15
2018-03-17T05:31:08.355Z,2.03
2018-03-17T05:33:02.661Z,2.07
2018-03-17T05:34:02.356Z,2.17
2018-03-17T05:35:54.811Z,2.10
2018-03-17T05:36:54.700Z,2.18
2018-03-17T05:38:50.076Z,2.21
2018-03-17T05:39:48.024Z,2.17
2018-03-17T05:41:41.747Z,2.29
2018-03-17T05:42:41.335Z,2.30
2018-03-17T05:44:35.758Z,2.37
2018-03-17T05:45:35.716Z,2.24
2018-03-17T05:47:29.494Z,2.28
2018-03-17T05:48:29.076Z,2.28
2018-03-17T05:50:22.817Z,2.28
2018-03-17T05:51:22.745Z,2.29
2018-03-17T05:53:15.799Z,2.32
2018-03-17T05:54:15.720Z,2.33
2018-03-17T05:56:08.691Z,2.39
2018-03-17T05:57:08.560Z,2.37
2018-03-17T05:59:06.757Z,2.28
2018-03-17T06:00:02.600Z,2.29
2018-03-17T06:01:55.521Z,2.29
2018-03-17T06:02:55.298Z,2.19
2018-03-17T06:04:48.676Z,2.36
2018-03-17T06:05:48.621Z,2.33
2018-03-17T06:07:41.916Z,2.24
2018-03-17T06:08:41.523Z,2.32
2018-03-17T06:10:38.741Z,2.25
2018-03-17T06:11:37.955Z,2.29
2018-03-17T06:13:31.208Z,2.24
2018-03-17T06:14:31.152Z,2.18
2018-03-17T06:16:24.440Z,2.25
2018-03-17T06:17:24.072Z,2.22
2018-03-17T06:19:20.015Z,2.18
2018-03-17T06:20:20.868Z,2.18
2018-03-17T06:22:13.351Z,2.03
2018-03-17T06:23:13.297Z,2.11
2018-03-17T06:25:07.014Z,2.07
2018-03-17T06:26:06.681Z,2.07
2018-03-17T06:28:03.827Z,2.17
2018-03-17T06:29:02.569Z,2.19
2018-03-17T06:30:56.214Z,2.22
2018-03-17T06:31:55.889Z,2.17
2018-03-17T06:33:49.307Z,2.19
2018-03-17T06:34:49.220Z,2.24
2018-03-17T06:36:42.768Z,2.18
2018-03-17T06:37:43.136Z,2.24
2018-03-17T06:39:36.007Z,2.21
2018-03-17T06:40:35.949Z,2.04
2018-03-17T06:42:29.401Z,2.19
2018-03-17T06:43:29.319Z,2.19
2018-03-17T06:45:23.047Z,2.14
2018-03-17T06:46:22.661Z,2.24
2018-03-17T06:48:16.097Z,2.07
2018-03-17T06:49:15.978Z,2.22
2018-03-17T06:51:09.703Z,2.18
2018-03-17T06:52:09.950Z,2.17
2018-03-17T06:54:02.772Z,2.19
2018-03-17T06:55:02.701Z,2.15
2018-03-17T06:56:56.438Z,2.10
2018-03-17T06:57:56.009Z,2.21
2018-03-17T06:59:50.021Z,2.18
2018-03-17T07:00:49.358Z,2.21
2018-03-17T07:02:42.778Z,2.07
2018-03-17T07:03:43.290Z,2.17
2018-03-17T07:05:36.135Z,2.19
2018-03-17T07:06:36.131Z,2.22
2018-03-17T07:08:29.547Z,2.03
2018-03-17T07:09:29.430Z,2.14
2018-03-17T07:11:22.891Z,2.03
2018-03-17T07:12:23.378Z,2.14
2018-03-17T07:14:27.446Z,2.06
2018-03-17T07:15:28.187Z,2.07
2018-03-17T07:17:21.180Z,1.99
2018-03-17T07:18:20.795Z,2.03
2018-03-17T07:20:14.518Z,1.89
2018-03-17T07:21:14.143Z,1.93
2018-03-17T07:23:07.902Z,2.06
2018-03-17T07:24:07.527Z,2.12
2018-03-17T07:26:00.964Z,2.11
2018-03-17T07:27:00.909Z,2.04
2018-03-17T07:28:54.279Z,1.99
2018-03-17T07:29:54.216Z,2.04
2018-03-17T07:31:47.706Z,2.04
2018-03-17T07:32:47.576Z,2.01
2018-03-17T07:34:41.259Z,1.92
2018-03-17T07:35:41.499Z,2.03
2018-03-17T07:37:38.915Z,2.07
2018-03-17T07:38:38.819Z,2.07
2018-03-17T07:40:32.447Z,2.07
2018-03-17T07:41:32.172Z,2.01
2018-03-17T07:43:26.457Z,1.92
2018-03-17T07:44:25.497Z,1.84
2018-03-17T07:46:19.298Z,2.01
2018-03-17T07:47:19.220Z,2.06
2018-03-17T07:49:12.530Z,2.12
2018-03-17T07:50:12.536Z,2.18
2018-03-17T07:52:05.546Z,2.28
2018-03-17T07:53:05.474Z,2.29
2018-03-17T07:54:59.483Z,2.32
2018-03-17T07:55:58.825Z,2.29
2018-03-17T07:57:52.468Z,2.03
2018-03-17T07:58:52.196Z,2.11
2018-03-17T08:00:50.658Z,2.04
2018-03-17T08:01:50.224Z,2.06
2018-03-17T08:03:43.957Z,2.10
2018-03-17T08:04:43.390Z,2.17
2018-03-17T08:06:36.747Z,2.21
2018-03-17T08:07:36.731Z,2.28
2018-03-17T08:09:30.184Z,2.17
2018-03-17T08:10:30.094Z,2.15
2018-03-17T08:12:23.516Z,2.18
2018-03-17T08:13:23.387Z,2.17
2018-03-17T08:15:17.778Z,2.25
2018-03-17T08:16:17.765Z,2.24
2018-03-17T08:18:11.172Z,2.40
2018-03-17T08:19:11.749Z,2.42
2018-03-17T08:21:04.517Z,2.24
2018-03-17T08:22:04.482Z,2.18
2018-03-17T08:23:58.178Z,2.06
2018-03-17T08:24:57.946Z,1.93
2018-03-17T08:26:51.220Z,2.01
2018-03-17T08:27:51.131Z,1.95
2018-03-17T08:29:44.871Z,1.92
2018-03-17T08:30:45.077Z,1.87
2018-03-17T08:32:38.236Z,1.93
2018-03-17T08:33:37.834Z,1.81
2018-03-17T08:35:31.568Z,1.80
2018-03-17T08:36:31.500Z,1.77
2018-03-17T08:38:25.996Z,1.75
2018-03-17T08:39:25.637Z,1.77
2018-03-17T08:41:18.155Z,1.64
2018-03-17T08:42:17.810Z,1.63
2018-03-17T08:44:11.244Z,1.59
2018-03-17T08:45:10.916Z,1.73
2018-03-17T08:47:04.541Z,1.80
2018-03-17T08:48:06.864Z,1.62
2018-03-17T08:49:57.992Z,1.66
2018-03-17T08:50:57.909Z,1.71
2018-03-17T08:52:51.341Z,1.74
2018-03-17T08:53:51.351Z,1.75
2018-03-17T08:55:44.811Z,1.77
2018-03-17T08:56:44.306Z,1.78
2018-03-17T08:58:37.812Z,1.80
2018-03-17T08:59:37.660Z,1.91
2018-03-17T09:01:31.069Z,1.91
2018-03-17T09:02:31.097Z,2.03
2018-03-17T09:04:25.381Z,1.87
2018-03-17T09:05:25.344Z,2.06
2018-03-17T09:07:18.768Z,1.95
2018-03-17T09:08:18.686Z,2.00
2018-03-17T09:10:12.075Z,1.87
2018-03-17T09:11:12.051Z,1.84
2018-03-17T09:13:05.511Z,2.00
2018-03-17T09:14:05.388Z,2.01
2018-03-17T09:15:58.272Z,2.04
2018-03-17T09:16:58.256Z,2.01
2018-03-17T09:18:53.216Z,1.73
2018-03-17T09:19:51.871Z,1.74
2018-03-17T09:21:44.534Z,1.92
2018-03-17T09:22:44.452Z,1.93
2018-03-17T09:24:38.124Z,2.10
2018-03-17T09:33:22.371Z,2.17
2018-03-17T09:34:00.430Z,2.24
2018-03-17T09:35:55.158Z,2.22
2018-03-17T09:36:55.663Z,2.29
2018-03-17T09:38:47.648Z,2.28
2018-03-17T09:39:49.786Z,2.32
2018-03-17T09:41:40.842Z,2.18
2018-03-17T09:42:40.475Z,2.19
2018-03-17T09:44:36.131Z,2.29
2018-03-17T09:45:35.697Z,2.28
2018-03-17T09:47:27.532Z,2.45
2018-03-17T09:48:28.538Z,2.37
2018-03-17T09:50:20.351Z,2.28
2018-03-17T09:51:20.303Z,2.28
2018-03-17T09:53:13.990Z,2.28
2018-03-17T09:54:13.605Z,2.24
2018-03-17T09:56:07.870Z,2.25
2018-03-17T09:57:07.797Z,2.21
2018-03-17T09:59:07.293Z,2.19
2018-03-17T10:00:07.330Z,2.07
2018-03-17T10:02:00.982Z,2.15
2018-03-17T10:03:00.552Z,2.18
2018-03-17T10:04:55.376Z,2.30
2018-03-17T10:05:53.970Z,2.30
2018-03-17T10:07:48.879Z,1.97
2018-03-17T10:08:47.468Z,2.07
2018-03-17T10:10:41.634Z,1.92
2018-03-17T10:11:41.225Z,2.01
2018-03-17T10:13:36.614Z,2.06
2018-03-17T10:14:35.489Z,2.04
2018-03-17T10:16:28.405Z,2.01
2018-03-17T10:17:27.977Z,2.06
2018-03-17T10:19:22.645Z,1.93
2018-03-17T10:20:22.744Z,2.03
2018-03-17T10:22:14.304Z,2.00
2018-03-17T10:23:14.224Z,2.03
2018-03-17T10:25:07.854Z,1.89
2018-03-17T10:26:07.795Z,1.97
2018-03-17T10:28:01.811Z,1.99
2018-03-17T10:29:01.306Z,1.93
2018-03-17T10:30:54.584Z,1.82
2018-03-17T10:31:54.232Z,1.77
2018-03-17T10:33:47.919Z,1.97
2018-03-17T10:34:47.543Z,1.95
2018-03-17T10:36:42.385Z,1.97
2018-03-17T10:37:40.952Z,1.73
2018-03-17T10:39:34.812Z,1.56
2018-03-17T10:40:34.220Z,1.60
2018-03-17T10:42:28.018Z,1.67
2018-03-17T10:43:27.552Z,1.80
2018-03-17T10:45:21.618Z,2.04
2018-03-17T10:46:20.996Z,2.10
2018-03-17T10:48:15.304Z,2.18
2018-03-17T10:49:14.306Z,2.14
2018-03-17T10:51:08.218Z,2.30
2018-03-17T10:52:07.619Z,2.28
2018-03-17T10:54:01.780Z,2.39
2018-03-17T10:55:00.975Z,2.30
2018-03-17T10:56:55.888Z,2.55
2018-03-17T10:57:55.089Z,2.54
2018-03-17T10:59:47.540Z,2.57
2018-03-17T11:00:47.881Z,2.39
2018-03-17T11:02:41.181Z,2.17
2018-03-17T11:03:41.415Z,2.17
2018-03-17T11:05:34.381Z,2.12
2018-03-17T11:06:34.216Z,2.03
2018-03-17T11:08:27.968Z,1.84
2018-03-17T11:09:29.475Z,1.85
2018-03-17T11:11:23.134Z,1.84
2018-03-17T11:12:20.967Z,1.81
2018-03-17T11:14:14.290Z,1.80
2018-03-17T11:15:14.256Z,1.92
2018-03-17T11:17:07.729Z,1.97
2018-03-17T11:18:07.582Z,1.89
2018-03-17T11:20:01.178Z,1.93
2018-03-17T11:21:00.925Z,1.95
2018-03-17T11:22:54.451Z,2.04
2018-03-17T11:23:54.280Z,2.06
2018-03-17T11:25:47.678Z,1.91
2018-03-17T11:26:47.689Z,1.84
2018-03-17T11:28:43.825Z,1.99
2018-03-17T11:29:42.544Z,1.84
2018-03-17T11:31:35.726Z,1.93
2018-03-17T11:32:35.597Z,1.95
2018-03-17T11:34:29.467Z,1.97
2018-03-17T11:35:29.237Z,2.03
2018-03-17T11:37:22.835Z,2.03
2018-03-17T11:38:22.571Z,2.10
2018-03-17T11:40:16.702Z,2.21
2018-03-17T11:41:17.062Z,2.07
2018-03-17T11:43:11.423Z,2.19
2018-03-17T11:44:10.650Z,2.04
2018-03-17T11:46:04.195Z,2.01
2018-03-17T11:47:04.748Z,2.00
2018-03-17T11:48:56.920Z,1.89
2018-03-17T11:49:56.650Z,1.92
2018-03-17T11:51:52.564Z,2.00
2018-03-17T11:52:50.055Z,1.89
2018-03-17T11:54:44.288Z,1.85
2018-03-17T11:55:43.463Z,1.93
2018-03-17T11:57:37.087Z,1.87
2018-03-17T11:58:36.674Z,1.89
2018-03-17T12:00:30.896Z,1.93
2018-03-17T12:01:30.027Z,1.93
2018-03-17T12:03:23.688Z,2.01
2018-03-17T12:04:23.425Z,1.97
2018-03-17T12:06:17.292Z,1.95
2018-03-17T12:07:16.968Z,1.93
2018-03-17T12:09:10.072Z,1.99
2018-03-17T12:10:10.100Z,1.95
2018-03-17T12:12:03.448Z,1.85
2018-03-17T12:13:03.954Z,1.82
2018-03-17T12:14:56.804Z,1.85
2018-03-17T12:15:56.739Z,1.87
2018-03-17T12:17:51.205Z,2.01
2018-03-17T12:18:51.107Z,2.04
2018-03-17T12:20:51.466Z,1.84
2018-03-17T12:21:51.437Z,1.39
2018-03-17T12:23:47.902Z,1.27
2018-03-17T12:24:44.823Z,1.31
2018-03-17T12:26:38.332Z,1.44
2018-03-17T12:27:38.144Z,1.56
2018-03-17T12:29:31.539Z,1.59
2018-03-17T12:30:31.456Z,1.60
2018-03-17T12:32:25.943Z,1.60
2018-03-17T12:33:24.862Z,1.53
2018-03-17T12:35:18.242Z,1.63
2018-03-17T12:36:18.501Z,1.60
2018-03-17T12:38:11.698Z,1.46
2018-03-17T12:39:11.572Z,1.41
2018-03-17T12:41:07.009Z,1.59
2018-03-17T12:42:05.904Z,1.57
2018-03-17T12:43:58.812Z,1.63
2018-03-17T12:44:58.731Z,1.64
2018-03-17T12:46:52.145Z,1.64
2018-03-17T12:47:52.093Z,1.64
2018-03-17T12:49:45.037Z,1.42
2018-03-17T12:50:45.510Z,1.41
2018-03-17T12:52:38.387Z,1.41
2018-03-17T12:53:38.279Z,1.45
2018-03-17T12:55:31.158Z,1.46
2018-03-17T12:56:31.128Z,1.49
2018-03-17T12:58:25.519Z,1.34
2018-03-17T12:59:26.070Z,1.34
2018-03-17T13:01:18.945Z,1.26
2018-03-17T13:02:18.838Z,1.20
2018-03-17T13:04:12.254Z,1.08
2018-03-17T13:05:12.456Z,1.05
2018-03-17T13:07:06.536Z,1.09
2018-03-17T13:08:05.524Z,1.10
2018-03-17T13:09:59.710Z,1.10
2018-03-17T13:10:58.967Z,1.16
2018-03-17T13:12:52.606Z,1.16
2018-03-17T13:13:52.330Z,1.09
2018-03-17T13:15:45.703Z,1.03
2018-03-17T13:16:45.650Z,1.09
2018-03-17T13:18:58.886Z,1.16
2018-03-17T13:20:00.584Z,1.13
2018-03-17T13:21:52.426Z,1.35
2018-03-17T13:22:51.387Z,1.28
2018-03-17T13:24:44.730Z,1.20
2018-03-17T13:25:44.742Z,1.27
2018-03-17T13:27:37.653Z,1.34
2018-03-17T13:28:37.552Z,1.46
2018-03-17T13:30:30.591Z,1.31
2018-03-17T13:31:30.414Z,1.20
2018-03-17T13:33:23.288Z,1.28
2018-03-17T13:34:23.821Z,1.20
2018-03-17T13:36:16.894Z,1.31
2018-03-17T13:37:16.593Z,1.28
2018-03-17T13:39:13.021Z,1.23
2018-03-17T13:40:10.936Z,1.28
2018-03-17T13:42:04.330Z,1.35
2018-03-17T13:43:04.296Z,1.17
2018-03-17T13:44:57.197Z,1.20
2018-03-17T13:45:57.176Z,1.21
2018-03-17T13:47:50.573Z,1.21
2018-03-17T13:48:50.003Z,1.18
2018-03-17T13:50:43.098Z,1.27
2018-03-17T13:51:43.432Z,1.31
2018-03-17T13:53:36.830Z,1.36
2018-03-17T13:54:36.767Z,1.31
2018-03-17T13:56:29.876Z,1.31
2018-03-17T13:57:29.624Z,1.35
2018-03-17T13:59:22.492Z,1.35
2018-03-17T14:00:22.461Z,1.41
2018-03-17T14:02:15.913Z,1.28
2018-03-17T14:03:16.417Z,1.26
2018-03-17T14:05:08.931Z,1.16
2018-03-17T14:06:08.677Z,1.16
2018-03-17T14:08:01.642Z,1.16
2018-03-17T14:09:01.551Z,1.17
2018-03-17T14:10:54.416Z,1.03
2018-03-17T14:11:54.382Z,1.00
2018-03-17T14:13:47.813Z,1.12
2018-03-17T14:14:47.247Z,0.96
2018-03-17T14:16:40.136Z,0.96
2018-03-17T14:17:40.420Z,0.98
2018-03-17T14:19:33.091Z,1.03
2018-03-17T14:20:32.927Z,1.13
2018-03-17T14:22:25.833Z,0.96
2018-03-17T14:23:25.786Z,0.92
2018-03-17T14:25:19.411Z,0.99
2018-03-17T14:26:19.156Z,1.00
2018-03-17T14:28:13.082Z,1.03
2018-03-17T14:29:12.464Z,1.13
2018-03-17T14:31:05.915Z,1.13
2018-03-17T14:32:05.370Z,1.09
2018-03-17T14:33:58.256Z,1.26
2018-03-17T14:34:58.218Z,1.28
2018-03-17T14:36:51.721Z,1.31
2018-03-17T14:37:51.559Z,1.34
2018-03-17T14:39:44.586Z,1.24
2018-03-17T14:40:44.422Z,1.13
2018-03-17T14:42:37.417Z,1.06
2018-03-17T14:43:37.250Z,1.02
2018-03-17T14:45:30.121Z,1.03
2018-03-17T14:46:30.092Z,0.99
2018-03-17T14:48:22.983Z,0.91
2018-03-17T14:49:22.935Z,1.08
2018-03-17T14:51:15.893Z,0.99
2018-03-17T14:52:15.797Z,0.99
2018-03-17T14:54:08.676Z,1.00
2018-03-17T14:55:08.637Z,1.10
2018-03-17T14:57:01.540Z,1.17
2018-03-17T14:58:01.485Z,1.02
2018-03-17T14:59:54.528Z,1.03
2018-03-17T15:00:54.364Z,0.98
2018-03-17T15:02:47.236Z,1.05
2018-03-17T15:03:47.211Z,0.99
2018-03-17T15:05:40.092Z,0.91
2018-03-17T15:06:40.061Z,0.81
2018-03-17T15:08:32.969Z,0.85
2018-03-17T15:09:32.903Z,0.80
2018-03-17T15:11:25.835Z,0.74
2018-03-17T15:12:25.753Z,0.74
2018-03-17T15:14:18.718Z,0.82
2018-03-17T15:15:18.608Z,0.72
2018-03-17T15:17:11.497Z,0.80
2018-03-17T15:18:11.453Z,0.81
2018-03-17T15:20:04.333Z,0.78
2018-03-17T15:21:04.313Z,0.87
2018-03-17T15:22:57.673Z,0.94
2018-03-17T15:23:57.639Z,1.03
2018-03-17T15:25:50.590Z,0.98
2018-03-17T15:26:50.602Z,1.02
2018-03-17T15:28:43.481Z,0.98
2018-03-17T15:29:43.398Z,0.88
2018-03-17T15:31:36.277Z,0.99
2018-03-17T15:32:36.250Z,0.92
2018-03-17T15:34:29.132Z,1.02
2018-03-17T15:35:29.101Z,0.96
2018-03-17T15:37:22.007Z,0.91
2018-03-17T15:38:21.949Z,0.84
2018-03-17T15:40:15.364Z,0.88
2018-03-17T15:41:15.288Z,0.91
2018-03-17T15:43:08.166Z,0.91
2018-03-17T15:44:08.140Z,1.00
2018-03-17T15:46:01.035Z,0.94
2018-03-17T15:47:00.985Z,0.99
2018-03-17T15:48:54.442Z,0.81
2018-03-17T15:49:54.320Z,0.84
2018-03-17T15:51:47.204Z,0.81
2018-03-17T15:52:47.180Z,0.94
2018-03-17T15:54:40.576Z,0.88
2018-03-17T15:55:40.524Z,0.94
2018-03-17T15:57:33.409Z,1.00
2018-03-17T15:58:33.420Z,1.02
2018-03-17T16:00:26.749Z,0.94
2018-03-17T16:01:26.716Z,0.91
2018-03-17T16:03:19.590Z,0.72
2018-03-17T16:04:19.565Z,0.63
2018-03-17T16:06:12.556Z,0.62
2018-03-17T16:07:12.419Z,0.56
2018-03-17T16:09:05.432Z,0.67
2018-03-17T16:10:05.259Z,0.66
2018-03-17T16:11:58.295Z,0.74
2018-03-17T16:12:58.173Z,0.76
2018-03-17T16:14:51.668Z,0.80
2018-03-17T16:15:51.459Z,0.78
2018-03-17T16:17:44.910Z,0.73
2018-03-17T16:18:44.797Z,0.66
2018-03-17T16:20:38.174Z,0.64
2018-03-17T16:21:38.163Z,0.62
2018-03-17T16:23:31.534Z,0.69
2018-03-17T16:24:31.489Z,0.66
2018-03-17T16:26:24.876Z,0.59
2018-03-17T16:27:24.828Z,0.50
2018-03-17T16:29:18.394Z,0.43
2018-03-17T16:30:18.173Z,0.48
2018-03-17T16:32:11.700Z,0.50
2018-03-17T16:33:11.590Z,0.51
2018-03-17T16:35:04.601Z,0.44
2018-03-17T16:36:04.374Z,0.64
2018-03-17T16:37:58.072Z,0.76
2018-03-17T16:38:59.095Z,0.74
2018-03-17T16:40:50.801Z,0.81
2018-03-17T16:41:50.673Z,0.82
2018-03-17T16:43:44.499Z,0.87
2018-03-17T16:44:43.981Z,0.90
2018-03-17T16:46:37.318Z,0.70
2018-03-17T16:47:37.416Z,0.69
2018-03-17T16:49:30.732Z,0.67
2018-03-17T16:50:30.737Z,0.51
2018-03-17T16:53:17.552Z,0.45
2018-03-17T16:54:15.450Z,0.44
2018-03-17T16:56:10.012Z,0.51
2018-03-17T16:57:09.523Z,0.47
2018-03-17T16:59:03.283Z,0.48
2018-03-17T17:01:43.694Z,0.50
2018-03-17T17:02:20.436Z,0.51
2018-03-17T17:04:11.235Z,0.55
2018-03-17T17:05:11.288Z,0.45
2018-03-17T17:07:05.024Z,0.48
2018-03-17T17:08:05.348Z,0.47
2018-03-17T17:09:58.133Z,0.51
2018-03-17T17:10:58.039Z,0.47
2018-03-17T17:12:54.880Z,0.45
2018-03-17T17:13:51.122Z,0.45
2018-03-17T17:15:51.579Z,0.45
2018-03-17T17:16:57.911Z,0.44
2018-03-17T17:18:47.262Z,0.40
2018-03-17T17:19:47.732Z,0.41
2018-03-17T17:21:42.522Z,0.47
2018-03-17T17:22:40.605Z,0.44
2018-03-17T17:24:33.478Z,0.56
2018-03-17T17:26:47.523Z,0.55
2018-03-17T17:27:47.421Z,0.45
2018-03-17T17:29:40.797Z,0.50
2018-03-17T17:30:40.770Z,0.50
2018-03-17T17:32:37.124Z,0.59
2018-03-17T17:33:34.204Z,0.56
2018-03-17T17:35:28.990Z,0.66
2018-03-17T17:36:27.855Z,0.64
2018-03-17T17:38:19.944Z,0.67
2018-03-17T17:39:20.508Z,0.63
2018-03-17T17:41:13.275Z,0.64
2018-03-17T17:42:13.825Z,0.62
2018-03-17T17:44:07.561Z,0.59
2018-03-17T17:45:07.643Z,0.53
2018-03-17T17:47:02.285Z,0.56
2018-03-17T17:47:59.668Z,0.55
2018-03-17T17:49:53.704Z,0.45
2018-03-17T17:50:53.523Z,0.47
2018-03-17T17:53:10.372Z,0.45
2018-03-17T17:55:02.553Z,0.50
2018-03-17T17:56:02.440Z,0.36
2018-03-17T17:57:55.053Z,0.35
2018-03-17T17:58:55.866Z,0.40
2018-03-17T18:00:50.959Z,0.43
2018-03-17T18:01:51.376Z,0.41
2018-03-17T18:03:44.101Z,0.44
2018-03-17T18:04:43.771Z,0.36
2018-03-17T18:06:37.388Z,0.40
2018-03-17T18:07:37.108Z,0.37
2018-03-17T18:09:30.485Z,0.41
2018-03-17T18:10:30.442Z,0.41
2018-03-17T18:12:24.427Z,0.45
2018-03-17T18:13:23.298Z,0.45
2018-03-17T18:15:16.721Z,0.48
2018-03-17T18:16:16.637Z,0.44
2018-03-17T18:18:10.025Z,0.50
2018-03-17T18:19:10.046Z,0.51
2018-03-17T18:21:05.601Z,0.40
2018-03-17T18:22:05.247Z,0.37
2018-03-17T18:23:58.042Z,0.43
2018-03-17T18:24:57.954Z,0.43
2018-03-17T18:26:51.482Z,0.33
2018-03-17T18:27:51.309Z,0.33
2018-03-17T18:29:45.275Z,0.32
2018-03-17T18:30:45.198Z,0.41
2018-03-17T18:32:39.143Z,0.26
2018-03-17T18:33:39.113Z,0.27
2018-03-17T18:35:32.488Z,0.36
2018-03-17T18:36:32.480Z,0.29
2018-03-17T18:38:25.588Z,0.37
2018-03-17T18:39:25.308Z,0.30
2018-03-17T18:41:19.296Z,0.27
2018-03-17T18:42:18.676Z,0.22
2018-03-17T18:44:12.108Z,0.11
2018-03-17T18:45:12.062Z,0.08
2018-03-17T18:47:05.061Z,0.22
2018-03-17T18:48:04.923Z,0.25
2018-03-17T18:49:59.369Z,0.22
2018-03-17T18:50:59.987Z,0.15
2018-03-17T18:52:52.957Z,0.09
2018-03-17T18:53:52.906Z,0.09
2018-03-17T18:55:46.286Z,0.09
2018-03-17T18:56:46.240Z,0.00
2018-03-17T18:58:40.270Z,0.07
2018-03-17T18:59:40.270Z,0.15
2018-03-17T19:01:33.678Z,0.12
2018-03-17T19:02:33.336Z,0.08
2018-03-17T19:05:34.044Z,0.09
2018-03-17T19:06:32.924Z,0.08
2018-03-17T19:08:26.877Z,0.04
2018-03-17T19:09:28.615Z,0.04
2018-03-17T19:11:21.314Z,0.08
2018-03-17T19:12:19.319Z,0.08
2018-03-17T19:14:12.711Z,0.09
2018-03-17T19:15:12.665Z,0.00
2018-03-17T19:17:06.475Z,0.09
2018-03-17T19:18:06.040Z,0.12
2018-03-17T19:19:59.727Z,0.09
2018-03-17T19:20:59.490Z,0.11
2018-03-17T19:22:53.085Z,0.05
2018-03-17T19:23:52.687Z,0.05
2018-03-17T19:25:47.179Z,0.11
2018-03-17T19:26:46.140Z,0.00
2018-03-17T19:28:40.585Z,0.08